Impacts TAF Board
For situational awareness. Not to be used for flight planning purposes.
IDs:

KBOS - Boston/Logan Intl, MA, US

Issued at 2059 UTC 18 Nov 2018
Updated at 2249 UTC 18 Nov 2018
Potential Impact None Slight Moderate High
Time2154Z 18/23Z 19/00Z 19/01Z 19/02Z 19/03Z 19/04Z 19/05Z 19/06Z 19/07Z 19/08Z 19/09Z 19/10Z 19/11Z>>
Type OBS PRVL PRVL PRVL PRVL PRVL PRVL PRVL PRVL PRVL PRVL PRVL PRVL PRVL
VIS 10 >6 >6 >6 >6 >6 >6 >6 6 6 6 6 5 5
CIG 95 40 40 40 40 40 40 40 30 30 30 30 20 20
Cover OVC BKN BKN BKN BKN BKN BKN BKN OVC OVC OVC OVC OVC OVC
FltCat VFR VFR VFR VFR VFR VFR VFR VFR MVFR MVFR MVFR MVFR MVFR MVFR
WX -- -- -- -- -- -- -- -- -RA -SN BR -RA -SN BR -RA -SN BR -RA -SN BR -RA BR -RA BR
WDir 160 150 150 150 150 150 150 150 200 200 200 200 180 180
WSpd 6 6 6 6 6 6 6 6 6 6 6 6 6 6
WGst -- -- -- -- -- -- -- -- -- -- -- -- -- --
Raw TAF
KBOS 182059Z 1821/1924 15006KT P6SM BKN040
  FM190600 20006KT 6SM -RASN BR OVC030
  FM191000 18006KT 5SM -RA BR OVC020
  FM191300 20006KT 3SM -RA BR OVC015
  FM191900 30006KT P6SM -RA OVC015
  FM192100 31006KT P6SM VCSH OVC020


Raw METAR
KBOS 182154Z 16006KT 10SM SCT070 OVC095 04/M02 A3033 RMK AO2 SLP269 T00441017
KBOS 182054Z 12006KT 10SM SCT070 OVC090 04/M02 A3032 RMK AO2 SLP266 T00391022 56006
KBOS 181954Z 11005KT 10SM BKN039 OVC090 04/M03 A3032 RMK AO2 SLP266 T00441028

METAR Board
Radar Display
Forecast Discussion
For situational awareness. Not to be used for flight planning purposes.